createdAt,value
2018-12-05T00:04:28.939Z,4.03
2018-12-05T00:07:09.997Z,4.03
2018-12-05T00:12:39.374Z,3.43
2018-12-05T00:15:16.585Z,3.50
2018-12-05T00:17:50.924Z,3.43
2018-12-05T00:20:32.303Z,3.30
2018-12-05T00:23:12.381Z,3.30
2018-12-05T00:31:41.509Z,2.93
2018-12-05T00:34:16.852Z,3.13
2018-12-05T00:36:49.968Z,2.93
2018-12-05T00:39:38.314Z,3.00
2018-12-05T00:42:12.320Z,3.10
2018-12-05T00:44:46.900Z,3.73
2018-12-05T00:47:20.908Z,2.10
2018-12-05T00:50:07.638Z,3.37
2018-12-05T00:52:40.093Z,3.50
2018-12-05T00:55:13.403Z,3.40
2018-12-05T00:57:48.989Z,3.07
2018-12-05T01:00:24.151Z,3.70
2018-12-05T01:02:59.030Z,3.67
2018-12-05T01:05:31.623Z,3.67
2018-12-05T01:08:07.224Z,2.97
2018-12-05T01:10:46.564Z,2.83
2018-12-05T01:13:21.027Z,3.30
2018-12-05T01:15:55.192Z,3.10
2018-12-05T01:18:30.309Z,2.63
2018-12-05T01:23:59.710Z,2.87
2018-12-05T01:26:32.083Z,2.73
2018-12-05T01:29:07.113Z,3.00
2018-12-05T01:31:36.234Z,2.60
2018-12-05T01:34:05.324Z,2.87
2018-12-05T01:36:34.729Z,3.30
2018-12-05T01:39:05.152Z,2.90
2018-12-05T01:44:29.222Z,3.37
2018-12-05T01:47:02.925Z,2.60
2018-12-05T01:49:32.064Z,2.20
2018-12-05T01:52:01.202Z,3.27
2018-12-05T01:54:30.366Z,2.50
2018-12-05T01:57:06.138Z,2.70
2018-12-05T01:59:39.534Z,5.57
2018-12-05T02:02:12.534Z,2.73
2018-12-05T02:04:47.474Z,3.70
2018-12-05T02:07:22.066Z,3.27
2018-12-05T02:10:00.344Z,2.70
2018-12-05T02:12:35.573Z,3.03
2018-12-05T02:15:10.773Z,3.33
2018-12-05T02:17:49.574Z,3.63
2018-12-05T02:20:22.439Z,2.83
2018-12-05T02:22:54.873Z,2.90
2018-12-05T02:25:36.224Z,3.27
2018-12-05T02:28:16.517Z,3.33
2018-12-05T02:30:51.139Z,3.40
2018-12-05T02:33:23.756Z,4.50
2018-12-05T02:35:59.230Z,5.00
2018-12-05T02:38:34.057Z,3.30
2018-12-05T02:41:11.926Z,4.57
2018-12-05T02:43:45.889Z,3.63
2018-12-05T02:46:20.592Z,3.93
2018-12-05T02:48:55.428Z,4.20
2018-12-05T02:51:27.975Z,5.43
2018-12-05T02:54:02.593Z,3.80
2018-12-05T02:56:35.965Z,4.00
2018-12-05T02:59:13.131Z,3.60
2018-12-05T03:01:51.273Z,3.50
2018-12-05T03:04:24.187Z,4.60
2018-12-05T03:06:58.623Z,3.63
2018-12-05T03:09:33.759Z,3.40
2018-12-05T03:12:10.955Z,4.57
2018-12-05T03:14:46.172Z,4.53
2018-12-05T03:17:19.227Z,5.63
2018-12-05T03:19:55.219Z,3.67
2018-12-05T03:22:29.807Z,3.70
2018-12-05T03:25:05.055Z,3.17
2018-12-05T03:27:41.341Z,3.87
2018-12-05T03:30:14.277Z,3.93
2018-12-05T03:32:50.258Z,5.07
2018-12-05T03:35:31.775Z,6.47
2018-12-05T03:38:05.448Z,4.57
2018-12-05T03:40:40.942Z,4.30
2018-12-05T03:43:16.249Z,4.00
2018-12-05T03:45:50.804Z,4.93
2018-12-05T03:48:26.648Z,4.00
2018-12-05T03:51:01.378Z,4.47
2018-12-05T03:53:38.891Z,3.73
2018-12-05T03:56:11.727Z,4.67
2018-12-05T03:58:48.827Z,4.00
2018-12-05T04:01:18.772Z,3.73
2018-12-05T04:03:53.418Z,4.00
2018-12-05T04:06:28.428Z,5.47
2018-12-05T04:09:02.884Z,3.93
2018-12-05T04:11:32.386Z,4.27
2018-12-05T04:14:08.536Z,4.40
2018-12-05T04:16:43.800Z,4.53
2018-12-05T04:22:14.672Z,5.40
2018-12-05T04:24:47.758Z,5.70
2018-12-05T04:27:20.748Z,6.97
2018-12-05T04:29:55.458Z,4.67
2018-12-05T04:32:29.591Z,7.77
2018-12-05T04:35:02.966Z,8.10
2018-12-05T04:37:39.608Z,5.93
2018-12-05T04:40:13.664Z,4.40
2018-12-05T04:42:46.788Z,4.63
2018-12-05T04:45:21.855Z,4.80
2018-12-05T04:48:08.145Z,4.70
2018-12-05T04:50:43.154Z,5.00
2018-12-05T04:53:18.738Z,4.80
2018-12-05T04:55:51.946Z,4.97
2018-12-05T04:58:24.649Z,5.43
2018-12-05T05:00:59.763Z,5.27
2018-12-05T05:03:32.788Z,5.27
2018-12-05T05:06:06.847Z,4.73
2018-12-05T05:08:43.969Z,5.70
2018-12-05T05:11:18.538Z,5.07
2018-12-05T05:13:51.582Z,8.40
2018-12-05T05:16:21.484Z,5.30
2018-12-05T05:18:50.672Z,5.97
2018-12-05T05:21:28.339Z,6.10
2018-12-05T05:24:03.771Z,6.20
2018-12-05T05:26:41.901Z,8.37
2018-12-05T05:29:21.237Z,5.23
2018-12-05T05:31:54.810Z,6.03
2018-12-05T05:34:25.045Z,5.97
2018-12-05T05:36:54.734Z,5.43
2018-12-05T05:39:36.527Z,5.93
2018-12-05T05:42:06.349Z,10.70
2018-12-05T05:44:36.793Z,9.07
2018-12-05T05:47:11.804Z,5.30
2018-12-05T05:49:47.458Z,5.93
2018-12-05T05:52:17.078Z,5.53
2018-12-05T05:54:47.614Z,5.73
2018-12-05T05:57:23.039Z,6.20
2018-12-05T05:59:58.773Z,5.37
2018-12-05T06:02:31.337Z,5.40
2018-12-05T06:05:05.305Z,9.47
2018-12-05T06:07:39.858Z,5.93
2018-12-05T06:10:13.701Z,9.47
2018-12-05T06:12:49.102Z,9.27
2018-12-05T06:15:22.758Z,10.47
2018-12-05T06:17:56.357Z,6.93
2018-12-05T06:20:31.157Z,5.70
2018-12-05T06:23:07.750Z,7.17
2018-12-05T06:25:41.093Z,6.10
2018-12-05T06:28:17.566Z,7.93
2018-12-05T06:30:52.462Z,7.00
2018-12-05T06:33:27.840Z,7.30
2018-12-05T06:36:00.704Z,8.20
2018-12-05T06:38:35.549Z,7.63
2018-12-05T06:41:07.987Z,9.67
2018-12-05T06:43:42.676Z,6.83
2018-12-05T06:46:17.194Z,7.67
2018-12-05T06:48:52.510Z,8.90
2018-12-05T06:51:42.183Z,8.70
2018-12-05T06:54:15.960Z,7.67
2018-12-05T06:56:54.791Z,10.10
2018-12-05T06:59:33.126Z,7.50
2018-12-05T07:07:50.489Z,9.60
2018-12-05T07:19:11.321Z,7.17
2018-12-05T07:21:46.607Z,6.77
2018-12-05T07:24:30.035Z,8.30
2018-12-05T07:27:11.418Z,8.83
2018-12-05T07:29:47.544Z,13.80
2018-12-05T07:32:21.133Z,13.20
2018-12-05T07:34:59.707Z,8.57
2018-12-05T07:37:32.789Z,12.73
2018-12-05T07:40:22.352Z,8.03
2018-12-05T07:42:58.179Z,7.57
2018-12-05T07:45:34.909Z,9.40
2018-12-05T07:48:11.396Z,9.73
2018-12-05T07:50:49.519Z,9.37
2018-12-05T07:53:27.430Z,6.97
2018-12-05T07:56:07.652Z,7.00
2018-12-05T07:58:40.044Z,8.03
2018-12-05T08:01:27.972Z,6.50
2018-12-05T08:04:07.929Z,8.20
2018-12-05T08:06:37.458Z,8.10
2018-12-05T08:12:21.524Z,7.63
2018-12-05T08:15:04.574Z,7.20
2018-12-05T08:17:49.075Z,6.80
2018-12-05T08:20:28.361Z,7.97
2018-12-05T08:23:24.521Z,6.83
2018-12-05T08:29:02.150Z,6.90
2018-12-05T08:31:35.455Z,6.20
2018-12-05T08:34:09.229Z,8.60
2018-12-05T08:48:53.323Z,7.37
2018-12-05T09:00:56.166Z,8.30
2018-12-05T09:06:43.688Z,8.77
2018-12-05T09:09:21.740Z,8.50
2018-12-05T09:11:57.456Z,8.33
2018-12-05T09:14:37.532Z,7.70
2018-12-05T09:17:12.100Z,6.50
2018-12-05T09:19:50.897Z,8.23
2018-12-05T09:22:31.962Z,7.03
2018-12-05T09:28:18.010Z,7.53
2018-12-05T09:30:55.830Z,8.37
2018-12-05T09:36:18.326Z,9.53
2018-12-05T09:38:53.427Z,7.63
2018-12-05T09:41:27.211Z,8.27
2018-12-05T09:44:07.447Z,8.57
2018-12-05T09:46:56.752Z,8.23
2018-12-05T09:49:34.838Z,5.87
2018-12-05T09:52:22.937Z,6.90
2018-12-05T09:55:11.752Z,6.23
2018-12-05T10:00:55.140Z,7.33
2018-12-05T10:03:37.841Z,7.83
2018-12-05T10:06:12.528Z,7.90
2018-12-05T10:11:46.597Z,6.97
2018-12-05T10:14:22.290Z,5.60
2018-12-05T10:17:06.576Z,7.87
2018-12-05T10:19:42.541Z,7.03
2018-12-05T10:22:30.130Z,6.83
2018-12-05T10:25:19.036Z,8.17
2018-12-05T10:27:57.992Z,6.40
2018-12-05T10:30:37.220Z,6.40
2018-12-05T10:33:26.571Z,7.20
2018-12-05T10:36:05.899Z,6.80
2018-12-05T10:41:44.234Z,6.03
2018-12-05T10:44:15.236Z,8.23
2018-12-05T10:47:02.848Z,6.47
2018-12-05T10:52:35.811Z,6.50
2018-12-05T10:55:17.300Z,6.77
2018-12-05T10:57:51.079Z,6.57
2018-12-05T11:00:32.833Z,7.90
2018-12-05T11:03:17.916Z,7.70
2018-12-05T11:06:02.635Z,6.93
2018-12-05T11:08:43.641Z,6.50
2018-12-05T11:11:23.607Z,6.50
2018-12-05T11:14:09.606Z,6.73
2018-12-05T11:22:47.196Z,6.33
2018-12-05T11:25:25.070Z,7.00
2018-12-05T11:27:54.660Z,7.03
2018-12-05T11:30:28.405Z,6.60
2018-12-05T11:33:03.011Z,7.10
2018-12-05T11:35:43.090Z,6.77
2018-12-05T11:38:19.454Z,6.83
2018-12-05T11:40:52.780Z,6.63
2018-12-05T11:43:28.365Z,7.53
2018-12-05T11:46:03.917Z,6.47
2018-12-05T11:48:38.925Z,5.83
2018-12-05T11:51:13.895Z,7.33
2018-12-05T11:53:46.616Z,7.83
2018-12-05T11:56:27.520Z,7.23
2018-12-05T11:59:02.730Z,6.13
2018-12-05T12:01:35.924Z,6.93
2018-12-05T12:04:12.909Z,6.30
2018-12-05T12:06:45.955Z,6.73
2018-12-05T12:09:22.214Z,6.30
2018-12-05T12:11:55.856Z,6.17
2018-12-05T12:14:36.298Z,6.97
2018-12-05T12:17:11.718Z,7.00
2018-12-05T12:19:46.844Z,7.17
2018-12-05T12:22:19.690Z,8.10
2018-12-05T12:24:55.070Z,8.07
2018-12-05T12:27:28.469Z,8.83
2018-12-05T12:30:03.524Z,9.13
2018-12-05T12:32:38.699Z,8.00
2018-12-05T12:35:12.453Z,8.17
2018-12-05T12:37:46.560Z,8.67
2018-12-05T12:40:21.138Z,8.23
2018-12-05T12:42:57.168Z,9.07
2018-12-05T12:45:30.839Z,7.87
2018-12-05T12:48:06.505Z,7.97
2018-12-05T12:50:42.780Z,7.37
2018-12-05T12:53:18.298Z,8.13
2018-12-05T12:55:53.054Z,8.30
2018-12-05T12:58:27.094Z,8.27
2018-12-05T13:01:02.158Z,8.17
2018-12-05T13:03:35.419Z,7.50
2018-12-05T13:06:11.850Z,7.63
2018-12-05T13:08:49.023Z,6.53
2018-12-05T13:11:24.853Z,7.13
2018-12-05T13:13:59.698Z,7.93
2018-12-05T13:16:29.208Z,6.97
2018-12-05T13:18:58.571Z,7.23
2018-12-05T13:21:28.549Z,7.97
2018-12-05T13:27:58.912Z,7.33
2018-12-05T13:30:32.025Z,6.73
2018-12-05T13:33:02.105Z,7.00
2018-12-05T13:35:32.450Z,7.27
2018-12-05T13:38:12.570Z,7.43
2018-12-05T13:43:46.341Z,7.90
2018-12-05T13:46:21.369Z,7.17
2018-12-05T13:48:59.004Z,7.60
2018-12-05T13:51:39.716Z,7.57
2018-12-05T13:54:15.820Z,5.77
2018-12-05T13:56:54.694Z,7.77
2018-12-05T13:59:30.606Z,6.17
2018-12-05T14:02:03.616Z,7.63
2018-12-05T14:04:42.134Z,7.27
2018-12-05T14:07:15.428Z,8.07
2018-12-05T14:09:50.782Z,7.63
2018-12-05T14:12:32.250Z,7.60
2018-12-05T14:15:14.200Z,7.50
2018-12-05T14:18:01.182Z,10.67
2018-12-05T14:20:32.596Z,8.00
2018-12-05T14:23:08.295Z,7.63
2018-12-05T14:25:46.508Z,6.27
2018-12-05T14:28:21.374Z,7.07
2018-12-05T14:30:57.606Z,6.13
2018-12-05T14:33:32.649Z,6.17
2018-12-05T14:36:06.070Z,7.33
2018-12-05T14:38:49.883Z,6.60
2018-12-05T14:41:27.325Z,7.53
2018-12-05T14:43:59.687Z,8.73
2018-12-05T14:46:29.318Z,8.87
2018-12-05T14:49:05.409Z,8.23
2018-12-05T14:51:44.717Z,8.03
2018-12-05T14:54:23.581Z,7.93
2018-12-05T14:56:59.357Z,9.60
2018-12-05T14:59:35.383Z,10.67
2018-12-05T15:02:12.736Z,8.53
2018-12-05T15:04:52.249Z,7.47
2018-12-05T15:10:54.303Z,6.97
2018-12-05T15:13:40.932Z,7.03
2018-12-05T15:16:20.804Z,7.17
2018-12-05T15:19:05.178Z,7.10
2018-12-05T15:21:40.445Z,7.40
2018-12-05T15:24:16.019Z,6.30
2018-12-05T15:26:51.914Z,6.57
2018-12-05T15:29:31.711Z,6.87
2018-12-05T15:32:11.603Z,7.77
2018-12-05T15:34:55.295Z,7.63
2018-12-05T15:37:36.226Z,7.63
2018-12-05T15:40:21.595Z,7.57
2018-12-05T15:45:45.818Z,16.73
2018-12-05T15:51:31.584Z,19.87
2018-12-05T15:54:04.900Z,8.63
2018-12-05T15:59:38.775Z,7.07
2018-12-05T16:08:02.784Z,6.37
2018-12-05T16:10:40.335Z,6.73
2018-12-05T16:13:15.535Z,6.97
2018-12-05T16:15:56.445Z,6.70
2018-12-05T16:18:36.206Z,6.80
2018-12-05T16:24:16.091Z,6.53
2018-12-05T16:26:49.211Z,6.70
2018-12-05T16:29:25.990Z,5.93
2018-12-05T16:32:04.185Z,6.20
2018-12-05T16:34:37.215Z,5.77
2018-12-05T16:37:09.767Z,6.10
2018-12-05T16:39:43.403Z,5.73
2018-12-05T16:42:18.596Z,5.67
2018-12-05T16:45:01.871Z,6.33
2018-12-05T16:47:50.674Z,6.50
2018-12-05T16:50:26.524Z,10.35
2018-12-05T16:53:03.590Z,7.87
2018-12-05T16:58:31.946Z,7.90
2018-12-05T17:01:09.222Z,6.60
2018-12-05T17:04:04.386Z,7.57
2018-12-05T17:09:34.684Z,7.03
2018-12-05T17:13:05.941Z,8.00
2018-12-05T17:24:58.654Z,8.90
2018-12-05T17:36:48.809Z,7.80
2018-12-05T17:42:22.171Z,7.30
2018-12-05T17:57:10.568Z,8.97
2018-12-05T17:59:54.617Z,9.33
2018-12-05T18:14:56.696Z,7.63
2018-12-05T18:26:50.391Z,6.87
2018-12-05T18:32:42.625Z,7.10
2018-12-05T18:35:30.942Z,6.47
2018-12-05T18:38:05.369Z,5.97
2018-12-05T18:40:40.890Z,7.23
2018-12-05T18:43:22.584Z,6.63
2018-12-05T18:46:01.382Z,7.07
2018-12-05T18:48:37.649Z,5.80
2018-12-05T19:09:39.742Z,7.17
2018-12-05T19:18:27.814Z,5.83
2018-12-05T19:30:19.933Z,6.43
2018-12-05T19:32:53.397Z,7.33
2018-12-05T19:35:28.049Z,6.37
2018-12-05T19:41:15.840Z,9.43
2018-12-05T19:44:01.477Z,12.30
2018-12-05T19:46:44.755Z,12.60
2018-12-05T19:55:02.134Z,7.43
2018-12-05T20:00:43.850Z,5.53
2018-12-05T20:03:13.171Z,5.83
2018-12-05T20:05:55.387Z,6.83
2018-12-05T20:08:29.932Z,6.27
2018-12-05T20:11:08.819Z,5.87
2018-12-05T20:16:35.310Z,6.13
2018-12-05T20:19:10.820Z,6.40
2018-12-05T20:21:47.562Z,11.37
2018-12-05T20:24:27.301Z,7.63
2018-12-05T20:27:03.210Z,6.87
2018-12-05T20:29:47.158Z,7.30
2018-12-05T20:32:20.999Z,6.87
2018-12-05T20:34:55.102Z,7.10
2018-12-05T20:37:34.599Z,5.97
2018-12-05T20:43:00.765Z,6.40
2018-12-05T20:45:34.599Z,6.57
2018-12-05T20:48:16.054Z,6.00
2018-12-05T20:50:50.245Z,5.70
2018-12-05T20:53:27.345Z,5.20
2018-12-05T20:56:05.923Z,5.60
2018-12-05T20:58:44.108Z,5.70
2018-12-05T21:01:28.640Z,5.33
2018-12-05T21:04:03.960Z,5.53
2018-12-05T21:06:40.789Z,6.03
2018-12-05T21:09:14.559Z,5.43
2018-12-05T21:11:48.929Z,6.30
2018-12-05T21:14:27.692Z,5.47
2018-12-05T21:17:14.677Z,6.17
2018-12-05T21:19:56.437Z,6.73
2018-12-05T21:22:33.748Z,8.30
2018-12-05T21:25:09.046Z,11.03
2018-12-05T21:27:45.959Z,7.27
2018-12-05T21:30:20.866Z,7.50
2018-12-05T21:32:55.930Z,7.63
2018-12-05T21:35:31.003Z,7.73
2018-12-05T21:38:04.322Z,10.37
2018-12-05T21:40:41.071Z,6.17
2018-12-05T21:43:15.359Z,5.87
2018-12-05T21:45:51.749Z,5.17
2018-12-05T21:48:42.373Z,5.57
2018-12-05T21:51:16.696Z,6.63
2018-12-05T21:53:52.209Z,6.90
2018-12-05T21:56:27.269Z,7.20
2018-12-05T21:59:10.458Z,7.03
2018-12-05T22:01:46.843Z,6.17
2018-12-05T22:04:21.147Z,5.83
2018-12-05T22:06:58.231Z,5.83
2018-12-05T22:09:36.535Z,5.43
2018-12-05T22:12:13.343Z,5.00
2018-12-05T22:14:46.723Z,6.27
2018-12-05T22:17:21.753Z,6.00
2018-12-05T22:19:58.920Z,4.77
2018-12-05T22:22:32.014Z,5.20
2018-12-05T22:25:07.694Z,4.87
2018-12-05T22:27:43.813Z,6.50
2018-12-05T22:30:16.461Z,5.33
2018-12-05T22:32:49.786Z,4.97
2018-12-05T22:35:23.803Z,5.97
2018-12-05T22:37:56.369Z,5.47
2018-12-05T22:40:30.799Z,5.43
2018-12-05T22:43:03.769Z,5.90
2018-12-05T22:45:38.027Z,5.13
2018-12-05T22:48:10.673Z,5.70
2018-12-05T22:50:46.860Z,5.50
2018-12-05T22:53:20.848Z,6.13
2018-12-05T22:55:53.429Z,6.17
2018-12-05T22:58:30.797Z,6.27
2018-12-05T23:01:04.990Z,5.90
2018-12-05T23:03:38.637Z,5.87
2018-12-05T23:06:11.763Z,6.27
2018-12-05T23:08:46.573Z,6.03
2018-12-05T23:11:22.372Z,6.00
2018-12-05T23:13:54.854Z,5.00
2018-12-05T23:16:31.074Z,5.23
2018-12-05T23:19:05.451Z,6.10
2018-12-05T23:21:39.563Z,5.70
2018-12-05T23:24:14.088Z,6.13
2018-12-05T23:26:47.233Z,5.93
2018-12-05T23:29:22.608Z,6.37
2018-12-05T23:31:57.636Z,5.90
2018-12-05T23:34:33.182Z,7.67
2018-12-05T23:37:05.541Z,8.50
2018-12-05T23:39:41.678Z,7.60
2018-12-05T23:42:14.619Z,7.00
2018-12-05T23:44:51.088Z,7.87
2018-12-05T23:47:24.289Z,7.60
2018-12-05T23:49:57.297Z,6.87
2018-12-05T23:52:30.909Z,6.50
2018-12-05T23:55:04.428Z,7.33
2018-12-05T23:57:43.524Z,6.67
